sensor_id;sensor_type;location;lat;lon;timestamp;P1;durP1;ratioP1;P2;durP2;ratioP2
41468;SDS011;27206;47.032;15.484;2023-05-15T00:01:15;5.72;;;2.70;;
41468;SDS011;27206;47.032;15.484;2023-05-15T00:03:40;4.88;;;2.47;;
41468;SDS011;27206;47.032;15.484;2023-05-15T00:06:07;5.30;;;2.60;;
41468;SDS011;27206;47.032;15.484;2023-05-15T00:08:33;7.80;;;2.97;;
41468;SDS011;27206;47.032;15.484;2023-05-15T00:10:58;5.38;;;2.65;;
41468;SDS011;27206;47.032;15.484;2023-05-15T00:13:26;5.68;;;2.88;;
41468;SDS011;27206;47.032;15.484;2023-05-15T00:15:52;6.82;;;3.45;;
41468;SDS011;27206;47.032;15.484;2023-05-15T00:18:18;5.88;;;2.90;;
41468;SDS011;27206;47.032;15.484;2023-05-15T00:20:43;4.68;;;2.67;;
41468;SDS011;27206;47.032;15.484;2023-05-15T00:23:09;5.18;;;2.65;;
41468;SDS011;27206;47.032;15.484;2023-05-15T00:25:35;4.85;;;2.60;;
41468;SDS011;27206;47.032;15.484;2023-05-15T00:28:01;4.75;;;2.40;;
41468;SDS011;27206;47.032;15.484;2023-05-15T00:30:26;4.85;;;2.38;;
41468;SDS011;27206;47.032;15.484;2023-05-15T00:32:52;4.72;;;2.20;;
41468;SDS011;27206;47.032;15.484;2023-05-15T00:35:18;5.50;;;2.47;;
41468;SDS011;27206;47.032;15.484;2023-05-15T00:37:43;7.38;;;2.92;;
41468;SDS011;27206;47.032;15.484;2023-05-15T00:40:10;5.65;;;2.60;;
41468;SDS011;27206;47.032;15.484;2023-05-15T00:42:42;5.80;;;2.90;;
41468;SDS011;27206;47.032;15.484;2023-05-15T00:45:09;5.70;;;3.00;;
41468;SDS011;27206;47.032;15.484;2023-05-15T00:47:36;5.85;;;3.00;;
41468;SDS011;27206;47.032;15.484;2023-05-15T00:50:04;5.25;;;2.72;;
41468;SDS011;27206;47.032;15.484;2023-05-15T00:52:30;5.63;;;3.38;;
41468;SDS011;27206;47.032;15.484;2023-05-15T00:54:56;7.15;;;3.60;;
41468;SDS011;27206;47.032;15.484;2023-05-15T00:57:22;5.82;;;2.97;;
41468;SDS011;27206;47.032;15.484;2023-05-15T00:59:50;5.15;;;2.75;;
41468;SDS011;27206;47.032;15.484;2023-05-15T01:02:16;6.72;;;2.75;;
41468;SDS011;27206;47.032;15.484;2023-05-15T01:04:43;5.93;;;2.85;;
41468;SDS011;27206;47.032;15.484;2023-05-15T01:07:09;8.85;;;3.40;;
41468;SDS011;27206;47.032;15.484;2023-05-15T01:09:35;6.53;;;3.40;;
41468;SDS011;27206;47.032;15.484;2023-05-15T01:12:05;6.35;;;3.05;;
41468;SDS011;27206;47.032;15.484;2023-05-15T01:14:33;6.45;;;3.38;;
41468;SDS011;27206;47.032;15.484;2023-05-15T01:16:58;7.68;;;3.25;;
41468;SDS011;27206;47.032;15.484;2023-05-15T01:19:24;6.55;;;3.35;;
41468;SDS011;27206;47.032;15.484;2023-05-15T01:24:41;7.07;;;3.35;;
41468;SDS011;27206;47.032;15.484;2023-05-15T01:27:20;6.47;;;3.67;;
41468;SDS011;27206;47.032;15.484;2023-05-15T01:40:40;6.20;;;3.10;;
41468;SDS011;27206;47.032;15.484;2023-05-15T01:43:08;6.55;;;3.28;;
41468;SDS011;27206;47.032;15.484;2023-05-15T01:45:39;9.10;;;3.20;;
41468;SDS011;27206;47.032;15.484;2023-05-15T01:48:07;7.95;;;3.70;;
41468;SDS011;27206;47.032;15.484;2023-05-15T01:50:33;7.80;;;3.58;;
41468;SDS011;27206;47.032;15.484;2023-05-15T01:53:02;7.38;;;3.15;;
41468;SDS011;27206;47.032;15.484;2023-05-15T01:55:29;7.30;;;3.35;;
41468;SDS011;27206;47.032;15.484;2023-05-15T01:57:55;8.95;;;3.47;;
41468;SDS011;27206;47.032;15.484;2023-05-15T02:00:24;6.20;;;2.85;;
41468;SDS011;27206;47.032;15.484;2023-05-15T02:02:50;7.63;;;2.85;;
41468;SDS011;27206;47.032;15.484;2023-05-15T02:05:17;8.27;;;2.83;;
41468;SDS011;27206;47.032;15.484;2023-05-15T02:07:43;4.75;;;2.63;;
41468;SDS011;27206;47.032;15.484;2023-05-15T02:10:10;5.15;;;2.80;;
41468;SDS011;27206;47.032;15.484;2023-05-15T02:12:37;6.93;;;3.10;;
41468;SDS011;27206;47.032;15.484;2023-05-15T02:15:05;4.80;;;2.67;;
41468;SDS011;27206;47.032;15.484;2023-05-15T02:17:33;6.28;;;3.13;;
41468;SDS011;27206;47.032;15.484;2023-05-15T02:19:58;8.30;;;2.95;;
41468;SDS011;27206;47.032;15.484;2023-05-15T02:22:24;5.00;;;2.70;;
41468;SDS011;27206;47.032;15.484;2023-05-15T02:24:50;9.18;;;2.35;;
41468;SDS011;27206;47.032;15.484;2023-05-15T02:32:25;5.40;;;2.42;;
41468;SDS011;27206;47.032;15.484;2023-05-15T02:37:47;4.72;;;2.30;;
41468;SDS011;27206;47.032;15.484;2023-05-15T02:40:16;5.53;;;2.70;;
41468;SDS011;27206;47.032;15.484;2023-05-15T02:42:44;5.10;;;2.58;;
41468;SDS011;27206;47.032;15.484;2023-05-15T02:45:11;5.80;;;2.38;;
41468;SDS011;27206;47.032;15.484;2023-05-15T02:47:38;5.07;;;2.78;;
41468;SDS011;27206;47.032;15.484;2023-05-15T02:50:05;8.35;;;2.70;;
41468;SDS011;27206;47.032;15.484;2023-05-15T02:52:32;6.72;;;2.42;;
41468;SDS011;27206;47.032;15.484;2023-05-15T02:54:58;5.18;;;2.72;;
41468;SDS011;27206;47.032;15.484;2023-05-15T02:57:24;5.60;;;2.70;;
41468;SDS011;27206;47.032;15.484;2023-05-15T02:59:51;5.18;;;2.30;;
41468;SDS011;27206;47.032;15.484;2023-05-15T03:02:17;5.28;;;2.40;;
41468;SDS011;27206;47.032;15.484;2023-05-15T03:04:43;6.82;;;3.08;;
41468;SDS011;27206;47.032;15.484;2023-05-15T03:07:08;5.28;;;2.65;;
41468;SDS011;27206;47.032;15.484;2023-05-15T03:09:34;5.80;;;2.92;;
41468;SDS011;27206;47.032;15.484;2023-05-15T03:12:00;6.28;;;2.90;;
41468;SDS011;27206;47.032;15.484;2023-05-15T03:14:25;5.15;;;2.80;;
41468;SDS011;27206;47.032;15.484;2023-05-15T03:16:51;5.30;;;2.47;;
41468;SDS011;27206;47.032;15.484;2023-05-15T03:19:17;5.30;;;2.63;;
41468;SDS011;27206;47.032;15.484;2023-05-15T03:21:42;6.03;;;2.72;;
41468;SDS011;27206;47.032;15.484;2023-05-15T03:24:08;6.47;;;2.80;;
41468;SDS011;27206;47.032;15.484;2023-05-15T03:26:34;4.57;;;2.33;;
41468;SDS011;27206;47.032;15.484;2023-05-15T03:29:00;7.47;;;2.97;;
41468;SDS011;27206;47.032;15.484;2023-05-15T03:31:26;5.07;;;2.50;;
41468;SDS011;27206;47.032;15.484;2023-05-15T03:33:51;5.80;;;2.65;;
41468;SDS011;27206;47.032;15.484;2023-05-15T03:36:17;6.35;;;2.95;;
41468;SDS011;27206;47.032;15.484;2023-05-15T03:38:43;7.40;;;3.33;;
41468;SDS011;27206;47.032;15.484;2023-05-15T03:41:09;7.90;;;3.67;;
41468;SDS011;27206;47.032;15.484;2023-05-15T03:43:34;7.43;;;3.63;;
41468;SDS011;27206;47.032;15.484;2023-05-15T03:46:00;10.05;;;3.72;;
41468;SDS011;27206;47.032;15.484;2023-05-15T03:48:26;8.13;;;3.35;;
41468;SDS011;27206;47.032;15.484;2023-05-15T03:50:51;8.45;;;3.92;;
41468;SDS011;27206;47.032;15.484;2023-05-15T03:53:17;9.48;;;3.80;;
41468;SDS011;27206;47.032;15.484;2023-05-15T03:55:43;9.57;;;3.78;;
41468;SDS011;27206;47.032;15.484;2023-05-15T03:58:08;9.18;;;3.17;;
41468;SDS011;27206;47.032;15.484;2023-05-15T04:00:34;6.07;;;2.85;;
41468;SDS011;27206;47.032;15.484;2023-05-15T04:03:00;5.88;;;2.33;;
41468;SDS011;27206;47.032;15.484;2023-05-15T04:05:25;6.10;;;2.88;;
41468;SDS011;27206;47.032;15.484;2023-05-15T04:07:51;7.82;;;3.05;;
41468;SDS011;27206;47.032;15.484;2023-05-15T04:10:17;5.68;;;2.90;;
41468;SDS011;27206;47.032;15.484;2023-05-15T04:12:43;8.95;;;2.83;;
41468;SDS011;27206;47.032;15.484;2023-05-15T04:17:45;6.90;;;2.78;;
41468;SDS011;27206;47.032;15.484;2023-05-15T04:20:13;6.32;;;2.83;;
41468;SDS011;27206;47.032;15.484;2023-05-15T04:22:40;6.50;;;2.95;;
41468;SDS011;27206;47.032;15.484;2023-05-15T04:25:06;7.10;;;3.17;;
41468;SDS011;27206;47.032;15.484;2023-05-15T04:27:33;8.48;;;3.13;;
41468;SDS011;27206;47.032;15.484;2023-05-15T04:30:00;6.90;;;2.97;;
41468;SDS011;27206;47.032;15.484;2023-05-15T04:32:25;6.15;;;2.65;;
41468;SDS011;27206;47.032;15.484;2023-05-15T04:34:51;6.03;;;3.00;;
41468;SDS011;27206;47.032;15.484;2023-05-15T04:37:17;5.50;;;2.65;;
41468;SDS011;27206;47.032;15.484;2023-05-15T04:39:43;7.65;;;3.08;;
41468;SDS011;27206;47.032;15.484;2023-05-15T04:42:09;7.03;;;3.17;;
41468;SDS011;27206;47.032;15.484;2023-05-15T04:44:34;5.82;;;2.92;;
41468;SDS011;27206;47.032;15.484;2023-05-15T04:47:00;7.38;;;3.15;;
41468;SDS011;27206;47.032;15.484;2023-05-15T04:49:26;6.75;;;3.13;;
41468;SDS011;27206;47.032;15.484;2023-05-15T04:51:51;5.75;;;2.58;;
41468;SDS011;27206;47.032;15.484;2023-05-15T04:54:17;6.50;;;3.25;;
41468;SDS011;27206;47.032;15.484;2023-05-15T04:56:44;6.75;;;3.15;;
41468;SDS011;27206;47.032;15.484;2023-05-15T04:59:10;6.53;;;2.90;;
41468;SDS011;27206;47.032;15.484;2023-05-15T05:01:37;5.93;;;2.88;;
41468;SDS011;27206;47.032;15.484;2023-05-15T05:04:03;5.63;;;2.90;;
41468;SDS011;27206;47.032;15.484;2023-05-15T05:06:29;6.78;;;3.28;;
41468;SDS011;27206;47.032;15.484;2023-05-15T05:08:55;6.57;;;2.75;;
41468;SDS011;27206;47.032;15.484;2023-05-15T05:11:20;6.05;;;2.95;;
41468;SDS011;27206;47.032;15.484;2023-05-15T05:13:46;6.95;;;3.28;;
41468;SDS011;27206;47.032;15.484;2023-05-15T05:16:12;7.57;;;3.20;;
41468;SDS011;27206;47.032;15.484;2023-05-15T05:18:38;7.70;;;3.40;;
41468;SDS011;27206;47.032;15.484;2023-05-15T05:21:04;6.20;;;3.15;;
41468;SDS011;27206;47.032;15.484;2023-05-15T05:23:30;6.82;;;2.95;;
41468;SDS011;27206;47.032;15.484;2023-05-15T05:25:55;8.15;;;3.80;;
41468;SDS011;27206;47.032;15.484;2023-05-15T05:28:21;6.45;;;3.17;;
41468;SDS011;27206;47.032;15.484;2023-05-15T05:30:47;7.18;;;3.42;;
41468;SDS011;27206;47.032;15.484;2023-05-15T05:33:13;7.38;;;3.13;;
41468;SDS011;27206;47.032;15.484;2023-05-15T05:35:39;6.47;;;3.00;;
41468;SDS011;27206;47.032;15.484;2023-05-15T05:38:05;7.75;;;3.38;;
41468;SDS011;27206;47.032;15.484;2023-05-15T05:40:31;9.40;;;3.65;;
41468;SDS011;27206;47.032;15.484;2023-05-15T05:42:59;6.72;;;3.80;;
41468;SDS011;27206;47.032;15.484;2023-05-15T05:45:26;6.63;;;3.80;;
41468;SDS011;27206;47.032;15.484;2023-05-15T05:47:53;8.27;;;3.78;;
41468;SDS011;27206;47.032;15.484;2023-05-15T05:50:20;6.97;;;3.40;;
41468;SDS011;27206;47.032;15.484;2023-05-15T05:52:45;7.45;;;3.83;;
41468;SDS011;27206;47.032;15.484;2023-05-15T05:55:11;6.72;;;3.28;;
41468;SDS011;27206;47.032;15.484;2023-05-15T05:57:37;8.57;;;3.55;;
41468;SDS011;27206;47.032;15.484;2023-05-15T06:00:03;6.90;;;3.17;;
41468;SDS011;27206;47.032;15.484;2023-05-15T06:02:35;7.43;;;3.72;;
41468;SDS011;27206;47.032;15.484;2023-05-15T06:05:04;5.78;;;3.25;;
41468;SDS011;27206;47.032;15.484;2023-05-15T06:07:30;5.90;;;3.28;;
41468;SDS011;27206;47.032;15.484;2023-05-15T06:09:56;6.30;;;3.30;;
41468;SDS011;27206;47.032;15.484;2023-05-15T06:12:22;6.30;;;3.03;;
41468;SDS011;27206;47.032;15.484;2023-05-15T06:14:47;7.32;;;2.92;;
41468;SDS011;27206;47.032;15.484;2023-05-15T06:17:13;5.18;;;2.13;;
41468;SDS011;27206;47.032;15.484;2023-05-15T06:19:39;7.93;;;2.08;;
41468;SDS011;27206;47.032;15.484;2023-05-15T06:22:04;3.40;;;1.75;;
41468;SDS011;27206;47.032;15.484;2023-05-15T06:24:30;4.65;;;2.35;;
41468;SDS011;27206;47.032;15.484;2023-05-15T06:26:56;5.22;;;2.30;;
41468;SDS011;27206;47.032;15.484;2023-05-15T06:29:21;5.45;;;2.45;;
41468;SDS011;27206;47.032;15.484;2023-05-15T06:31:47;5.25;;;2.38;;
41468;SDS011;27206;47.032;15.484;2023-05-15T06:34:13;7.78;;;2.90;;
41468;SDS011;27206;47.032;15.484;2023-05-15T06:36:38;4.82;;;2.45;;
41468;SDS011;27206;47.032;15.484;2023-05-15T06:39:04;6.05;;;2.90;;
41468;SDS011;27206;47.032;15.484;2023-05-15T06:41:31;10.23;;;2.80;;
41468;SDS011;27206;47.032;15.484;2023-05-15T06:43:56;4.95;;;2.70;;
41468;SDS011;27206;47.032;15.484;2023-05-15T06:46:23;5.30;;;2.80;;
41468;SDS011;27206;47.032;15.484;2023-05-15T06:48:49;6.63;;;3.38;;
41468;SDS011;27206;47.032;15.484;2023-05-15T06:51:15;5.80;;;2.80;;
41468;SDS011;27206;47.032;15.484;2023-05-15T06:53:41;6.70;;;3.08;;
41468;SDS011;27206;47.032;15.484;2023-05-15T06:56:06;7.25;;;3.13;;
41468;SDS011;27206;47.032;15.484;2023-05-15T06:58:32;8.30;;;4.03;;
41468;SDS011;27206;47.032;15.484;2023-05-15T07:00:58;6.88;;;3.60;;
41468;SDS011;27206;47.032;15.484;2023-05-15T07:03:25;6.57;;;3.45;;
41468;SDS011;27206;47.032;15.484;2023-05-15T07:05:52;13.25;;;4.47;;
41468;SDS011;27206;47.032;15.484;2023-05-15T07:08:18;8.60;;;3.30;;
41468;SDS011;27206;47.032;15.484;2023-05-15T07:10:43;6.35;;;3.30;;
41468;SDS011;27206;47.032;15.484;2023-05-15T07:13:09;9.35;;;3.38;;
41468;SDS011;27206;47.032;15.484;2023-05-15T07:15:35;7.65;;;3.90;;
41468;SDS011;27206;47.032;15.484;2023-05-15T07:18:00;6.00;;;3.33;;
41468;SDS011;27206;47.032;15.484;2023-05-15T07:20:26;6.78;;;3.20;;
41468;SDS011;27206;47.032;15.484;2023-05-15T07:22:52;7.28;;;3.80;;
41468;SDS011;27206;47.032;15.484;2023-05-15T07:25:17;8.50;;;3.65;;
41468;SDS011;27206;47.032;15.484;2023-05-15T07:27:46;6.43;;;3.28;;
41468;SDS011;27206;47.032;15.484;2023-05-15T07:30:12;9.13;;;4.38;;
41468;SDS011;27206;47.032;15.484;2023-05-15T07:32:38;8.02;;;3.35;;
41468;SDS011;27206;47.032;15.484;2023-05-15T07:35:04;9.18;;;3.00;;
41468;SDS011;27206;47.032;15.484;2023-05-15T07:37:30;5.93;;;2.90;;
41468;SDS011;27206;47.032;15.484;2023-05-15T07:39:55;6.32;;;3.05;;
41468;SDS011;27206;47.032;15.484;2023-05-15T07:42:21;5.85;;;2.92;;
41468;SDS011;27206;47.032;15.484;2023-05-15T07:44:47;6.57;;;2.83;;
41468;SDS011;27206;47.032;15.484;2023-05-15T07:47:12;6.15;;;3.03;;
41468;SDS011;27206;47.032;15.484;2023-05-15T07:49:38;4.72;;;2.22;;
41468;SDS011;27206;47.032;15.484;2023-05-15T07:52:04;5.25;;;2.40;;
41468;SDS011;27206;47.032;15.484;2023-05-15T07:54:30;5.88;;;2.83;;
41468;SDS011;27206;47.032;15.484;2023-05-15T07:56:56;5.57;;;2.90;;
41468;SDS011;27206;47.032;15.484;2023-05-15T07:59:22;5.90;;;2.88;;
41468;SDS011;27206;47.032;15.484;2023-05-15T08:01:48;5.30;;;2.60;;
41468;SDS011;27206;47.032;15.484;2023-05-15T08:04:14;5.47;;;2.38;;
41468;SDS011;27206;47.032;15.484;2023-05-15T08:06:40;4.35;;;2.22;;
41468;SDS011;27206;47.032;15.484;2023-05-15T08:09:06;4.57;;;2.20;;
41468;SDS011;27206;47.032;15.484;2023-05-15T08:11:33;4.05;;;1.90;;
41468;SDS011;27206;47.032;15.484;2023-05-15T08:13:59;3.75;;;1.80;;
41468;SDS011;27206;47.032;15.484;2023-05-15T08:16:25;5.90;;;2.25;;
41468;SDS011;27206;47.032;15.484;2023-05-15T08:18:50;3.38;;;1.50;;
41468;SDS011;27206;47.032;15.484;2023-05-15T08:21:17;3.80;;;1.90;;
41468;SDS011;27206;47.032;15.484;2023-05-15T08:23:43;4.95;;;2.20;;
41468;SDS011;27206;47.032;15.484;2023-05-15T08:26:08;4.65;;;1.95;;
41468;SDS011;27206;47.032;15.484;2023-05-15T08:28:36;6.07;;;1.83;;
41468;SDS011;27206;47.032;15.484;2023-05-15T08:31:02;5.40;;;1.52;;
41468;SDS011;27206;47.032;15.484;2023-05-15T08:33:27;3.40;;;1.50;;
41468;SDS011;27206;47.032;15.484;2023-05-15T08:35:53;3.85;;;1.92;;
41468;SDS011;27206;47.032;15.484;2023-05-15T08:38:22;2.85;;;1.48;;
41468;SDS011;27206;47.032;15.484;2023-05-15T08:40:49;3.42;;;1.63;;
41468;SDS011;27206;47.032;15.484;2023-05-15T08:43:17;2.65;;;1.45;;
41468;SDS011;27206;47.032;15.484;2023-05-15T08:45:45;2.33;;;1.05;;
41468;SDS011;27206;47.032;15.484;2023-05-15T08:48:13;2.22;;;1.15;;
41468;SDS011;27206;47.032;15.484;2023-05-15T08:50:41;2.08;;;0.93;;
41468;SDS011;27206;47.032;15.484;2023-05-15T08:53:08;1.17;;;0.60;;
41468;SDS011;27206;47.032;15.484;2023-05-15T08:55:38;2.15;;;0.98;;
41468;SDS011;27206;47.032;15.484;2023-05-15T08:58:04;1.48;;;0.73;;
41468;SDS011;27206;47.032;15.484;2023-05-15T09:00:30;2.38;;;1.00;;
41468;SDS011;27206;47.032;15.484;2023-05-15T09:02:58;2.78;;;1.10;;
41468;SDS011;27206;47.032;15.484;2023-05-15T09:05:26;2.08;;;1.05;;
41468;SDS011;27206;47.032;15.484;2023-05-15T09:07:52;1.33;;;0.73;;
41468;SDS011;27206;47.032;15.484;2023-05-15T09:10:19;3.05;;;0.73;;
41468;SDS011;27206;47.032;15.484;2023-05-15T09:12:45;2.28;;;0.93;;
41468;SDS011;27206;47.032;15.484;2023-05-15T09:15:14;1.67;;;0.73;;
41468;SDS011;27206;47.032;15.484;2023-05-15T09:17:41;2.70;;;0.90;;
41468;SDS011;27206;47.032;15.484;2023-05-15T09:23:00;1.35;;;0.70;;
41468;SDS011;27206;47.032;15.484;2023-05-15T09:25:34;1.95;;;0.65;;
41468;SDS011;27206;47.032;15.484;2023-05-15T09:28:26;1.52;;;0.70;;
41468;SDS011;27206;47.032;15.484;2023-05-15T09:30:57;0.82;;;0.50;;
41468;SDS011;27206;47.032;15.484;2023-05-15T09:33:43;0.50;;;0.40;;
41468;SDS011;27206;47.032;15.484;2023-05-15T09:36:08;1.00;;;0.57;;
41468;SDS011;27206;47.032;15.484;2023-05-15T09:38:38;1.00;;;0.60;;
41468;SDS011;27206;47.032;15.484;2023-05-15T09:41:12;1.35;;;0.60;;
41468;SDS011;27206;47.032;15.484;2023-05-15T09:43:38;1.52;;;0.57;;
41468;SDS011;27206;47.032;15.484;2023-05-15T09:46:06;1.27;;;0.60;;
41468;SDS011;27206;47.032;15.484;2023-05-15T09:48:33;0.98;;;0.52;;
41468;SDS011;27206;47.032;15.484;2023-05-15T09:50:59;0.65;;;0.38;;
41468;SDS011;27206;47.032;15.484;2023-05-15T09:53:25;0.40;;;0.30;;
41468;SDS011;27206;47.032;15.484;2023-05-15T09:55:55;3.28;;;0.40;;
41468;SDS011;27206;47.032;15.484;2023-05-15T09:58:21;1.38;;;0.50;;
41468;SDS011;27206;47.032;15.484;2023-05-15T10:00:47;1.27;;;0.40;;
41468;SDS011;27206;47.032;15.484;2023-05-15T10:03:13;0.50;;;0.40;;
41468;SDS011;27206;47.032;15.484;2023-05-15T10:05:39;1.25;;;0.50;;
41468;SDS011;27206;47.032;15.484;2023-05-15T10:08:05;0.38;;;0.20;;
41468;SDS011;27206;47.032;15.484;2023-05-15T10:10:31;0.40;;;0.20;;
41468;SDS011;27206;47.032;15.484;2023-05-15T10:12:58;0.70;;;0.40;;
41468;SDS011;27206;47.032;15.484;2023-05-15T10:15:27;2.25;;;0.57;;
41468;SDS011;27206;47.032;15.484;2023-05-15T10:17:53;0.28;;;0.20;;
41468;SDS011;27206;47.032;15.484;2023-05-15T10:20:20;0.93;;;0.30;;
41468;SDS011;27206;47.032;15.484;2023-05-15T10:22:53;0.50;;;0.20;;
41468;SDS011;27206;47.032;15.484;2023-05-15T10:25:28;1.38;;;0.10;;
41468;SDS011;27206;47.032;15.484;2023-05-15T10:28:10;0.28;;;0.10;;
41468;SDS011;27206;47.032;15.484;2023-05-15T10:30:36;0.38;;;0.17;;
41468;SDS011;27206;47.032;15.484;2023-05-15T10:33:03;0.57;;;0.17;;
41468;SDS011;27206;47.032;15.484;2023-05-15T10:35:29;0.70;;;0.30;;
41468;SDS011;27206;47.032;15.484;2023-05-15T10:37:55;0.00;;;0.00;;
41468;SDS011;27206;47.032;15.484;2023-05-15T10:40:22;0.00;;;0.00;;
41468;SDS011;27206;47.032;15.484;2023-05-15T10:42:48;0.10;;;0.00;;
41468;SDS011;27206;47.032;15.484;2023-05-15T10:45:14;0.10;;;0.00;;
41468;SDS011;27206;47.032;15.484;2023-05-15T10:47:41;1.75;;;0.08;;
41468;SDS011;27206;47.032;15.484;2023-05-15T10:50:08;0.15;;;0.10;;
41468;SDS011;27206;47.032;15.484;2023-05-15T10:52:35;0.05;;;0.00;;
41468;SDS011;27206;47.032;15.484;2023-05-15T10:55:04;0.20;;;0.00;;
41468;SDS011;27206;47.032;15.484;2023-05-15T10:57:31;0.00;;;0.00;;
41468;SDS011;27206;47.032;15.484;2023-05-15T10:59:57;0.05;;;0.00;;
41468;SDS011;27206;47.032;15.484;2023-05-15T11:02:24;0.08;;;0.00;;
41468;SDS011;27206;47.032;15.484;2023-05-15T11:04:57;0.20;;;0.00;;
41468;SDS011;27206;47.032;15.484;2023-05-15T11:07:24;0.08;;;0.05;;
41468;SDS011;27206;47.032;15.484;2023-05-15T11:09:51;0.05;;;0.00;;
41468;SDS011;27206;47.032;15.484;2023-05-15T11:12:17;0.25;;;0.10;;
41468;SDS011;27206;47.032;15.484;2023-05-15T11:17:18;0.00;;;0.00;;
41468;SDS011;27206;47.032;15.484;2023-05-15T11:22:25;0.00;;;0.00;;
41468;SDS011;27206;47.032;15.484;2023-05-15T11:27:27;0.00;;;0.00;;
41468;SDS011;27206;47.032;15.484;2023-05-15T11:32:30;0.10;;;0.00;;
41468;SDS011;27206;47.032;15.484;2023-05-15T11:35:17;0.38;;;0.00;;
41468;SDS011;27206;47.032;15.484;2023-05-15T11:38:02;0.05;;;0.00;;
41468;SDS011;27206;47.032;15.484;2023-05-15T11:40:45;0.20;;;0.10;;
41468;SDS011;27206;47.032;15.484;2023-05-15T11:43:29;0.00;;;0.00;;
41468;SDS011;27206;47.032;15.484;2023-05-15T11:45:56;0.00;;;0.00;;
41468;SDS011;27206;47.032;15.484;2023-05-15T11:48:32;0.03;;;0.00;;
41468;SDS011;27206;47.032;15.484;2023-05-15T11:51:02;0.00;;;0.00;;
41468;SDS011;27206;47.032;15.484;2023-05-15T11:53:28;0.00;;;0.00;;
41468;SDS011;27206;47.032;15.484;2023-05-15T11:55:55;0.10;;;0.03;;
41468;SDS011;27206;47.032;15.484;2023-05-15T11:58:22;0.20;;;0.00;;
41468;SDS011;27206;47.032;15.484;2023-05-15T12:00:48;0.10;;;0.00;;
41468;SDS011;27206;47.032;15.484;2023-05-15T12:03:22;0.73;;;0.10;;
41468;SDS011;27206;47.032;15.484;2023-05-15T12:05:49;0.00;;;0.00;;
41468;SDS011;27206;47.032;15.484;2023-05-15T12:08:15;0.15;;;0.00;;
41468;SDS011;27206;47.032;15.484;2023-05-15T12:10:42;0.00;;;0.00;;
41468;SDS011;27206;47.032;15.484;2023-05-15T12:13:12;0.00;;;0.00;;
41468;SDS011;27206;47.032;15.484;2023-05-15T12:15:39;0.10;;;0.00;;
41468;SDS011;27206;47.032;15.484;2023-05-15T12:18:06;0.10;;;0.10;;
41468;SDS011;27206;47.032;15.484;2023-05-15T12:20:36;0.32;;;0.15;;
41468;SDS011;27206;47.032;15.484;2023-05-15T12:23:03;0.38;;;0.15;;
41468;SDS011;27206;47.032;15.484;2023-05-15T12:25:34;0.43;;;0.17;;
41468;SDS011;27206;47.032;15.484;2023-05-15T12:28:02;0.38;;;0.20;;
41468;SDS011;27206;47.032;15.484;2023-05-15T12:30:29;0.57;;;0.22;;
41468;SDS011;27206;47.032;15.484;2023-05-15T12:33:02;0.20;;;0.20;;
41468;SDS011;27206;47.032;15.484;2023-05-15T12:35:31;0.32;;;0.13;;
41468;SDS011;27206;47.032;15.484;2023-05-15T12:38:04;0.10;;;0.10;;
41468;SDS011;27206;47.032;15.484;2023-05-15T12:40:35;0.52;;;0.28;;
41468;SDS011;27206;47.032;15.484;2023-05-15T12:43:07;0.10;;;0.00;;
41468;SDS011;27206;47.032;15.484;2023-05-15T12:45:33;0.10;;;0.10;;
41468;SDS011;27206;47.032;15.484;2023-05-15T12:48:02;0.00;;;0.00;;
41468;SDS011;27206;47.032;15.484;2023-05-15T12:50:30;0.82;;;0.08;;
41468;SDS011;27206;47.032;15.484;2023-05-15T12:52:57;0.20;;;0.13;;
41468;SDS011;27206;47.032;15.484;2023-05-15T12:55:31;3.08;;;0.20;;
41468;SDS011;27206;47.032;15.484;2023-05-15T12:57:59;0.80;;;0.20;;
41468;SDS011;27206;47.032;15.484;2023-05-15T13:00:33;0.10;;;0.05;;
41468;SDS011;27206;47.032;15.484;2023-05-15T13:03:00;0.45;;;0.10;;
41468;SDS011;27206;47.032;15.484;2023-05-15T13:05:26;0.77;;;0.15;;
41468;SDS011;27206;47.032;15.484;2023-05-15T13:07:56;0.30;;;0.10;;
41468;SDS011;27206;47.032;15.484;2023-05-15T13:10:23;0.10;;;0.00;;
41468;SDS011;27206;47.032;15.484;2023-05-15T13:12:53;0.00;;;0.00;;
41468;SDS011;27206;47.032;15.484;2023-05-15T13:18:03;3.00;;;0.20;;
41468;SDS011;27206;47.032;15.484;2023-05-15T13:23:02;0.00;;;0.00;;
41468;SDS011;27206;47.032;15.484;2023-05-15T13:25:27;0.00;;;0.00;;
41468;SDS011;27206;47.032;15.484;2023-05-15T13:27:57;0.08;;;0.03;;
41468;SDS011;27206;47.032;15.484;2023-05-15T13:30:23;0.20;;;0.10;;
41468;SDS011;27206;47.032;15.484;2023-05-15T13:32:50;0.10;;;0.10;;
41468;SDS011;27206;47.032;15.484;2023-05-15T13:35:16;0.30;;;0.20;;
41468;SDS011;27206;47.032;15.484;2023-05-15T13:37:42;0.20;;;0.20;;
41468;SDS011;27206;47.032;15.484;2023-05-15T13:40:08;0.38;;;0.20;;
41468;SDS011;27206;47.032;15.484;2023-05-15T13:42:44;0.50;;;0.10;;
41468;SDS011;27206;47.032;15.484;2023-05-15T13:45:10;0.98;;;0.10;;
41468;SDS011;27206;47.032;15.484;2023-05-15T13:47:37;0.10;;;0.10;;
41468;SDS011;27206;47.032;15.484;2023-05-15T13:50:13;0.45;;;0.10;;
41468;SDS011;27206;47.032;15.484;2023-05-15T13:52:40;0.10;;;0.10;;
41468;SDS011;27206;47.032;15.484;2023-05-15T13:55:07;2.63;;;0.30;;
41468;SDS011;27206;47.032;15.484;2023-05-15T13:57:34;0.60;;;0.20;;
41468;SDS011;27206;47.032;15.484;2023-05-15T14:00:06;0.10;;;0.00;;
41468;SDS011;27206;47.032;15.484;2023-05-15T14:02:37;0.00;;;0.00;;
41468;SDS011;27206;47.032;15.484;2023-05-15T14:05:03;0.20;;;0.05;;
41468;SDS011;27206;47.032;15.484;2023-05-15T14:07:29;0.13;;;0.10;;
41468;SDS011;27206;47.032;15.484;2023-05-15T14:09:56;0.45;;;0.20;;
41468;SDS011;27206;47.032;15.484;2023-05-15T14:12:22;0.10;;;0.10;;
41468;SDS011;27206;47.032;15.484;2023-05-15T14:14:47;0.10;;;0.10;;
41468;SDS011;27206;47.032;15.484;2023-05-15T14:17:14;0.30;;;0.10;;
41468;SDS011;27206;47.032;15.484;2023-05-15T14:19:40;0.52;;;0.20;;
41468;SDS011;27206;47.032;15.484;2023-05-15T14:22:06;0.38;;;0.10;;
41468;SDS011;27206;47.032;15.484;2023-05-15T14:24:32;1.23;;;0.30;;
41468;SDS011;27206;47.032;15.484;2023-05-15T14:26:58;0.17;;;0.10;;
41468;SDS011;27206;47.032;15.484;2023-05-15T14:29:24;0.10;;;0.10;;
41468;SDS011;27206;47.032;15.484;2023-05-15T14:31:50;0.00;;;0.00;;
41468;SDS011;27206;47.032;15.484;2023-05-15T14:34:16;0.75;;;0.10;;
41468;SDS011;27206;47.032;15.484;2023-05-15T14:36:43;0.50;;;0.10;;
41468;SDS011;27206;47.032;15.484;2023-05-15T14:39:10;0.10;;;0.10;;
41468;SDS011;27206;47.032;15.484;2023-05-15T14:41:38;0.45;;;0.05;;
41468;SDS011;27206;47.032;15.484;2023-05-15T14:44:03;0.00;;;0.00;;
41468;SDS011;27206;47.032;15.484;2023-05-15T14:46:29;0.25;;;0.13;;
41468;SDS011;27206;47.032;15.484;2023-05-15T14:48:54;0.50;;;0.10;;
41468;SDS011;27206;47.032;15.484;2023-05-15T14:51:20;0.93;;;0.10;;
41468;SDS011;27206;47.032;15.484;2023-05-15T14:53:46;0.30;;;0.10;;
41468;SDS011;27206;47.032;15.484;2023-05-15T14:56:11;0.20;;;0.03;;
41468;SDS011;27206;47.032;15.484;2023-05-15T14:58:37;0.28;;;0.00;;
41468;SDS011;27206;47.032;15.484;2023-05-15T15:01:03;0.10;;;0.10;;
41468;SDS011;27206;47.032;15.484;2023-05-15T15:03:29;0.73;;;0.00;;
41468;SDS011;27206;47.032;15.484;2023-05-15T15:05:55;0.10;;;0.10;;
41468;SDS011;27206;47.032;15.484;2023-05-15T15:08:21;0.55;;;0.13;;
41468;SDS011;27206;47.032;15.484;2023-05-15T15:10:46;0.10;;;0.03;;
41468;SDS011;27206;47.032;15.484;2023-05-15T15:13:12;0.40;;;0.10;;
41468;SDS011;27206;47.032;15.484;2023-05-15T15:15:38;0.10;;;0.08;;